This is the latest recevied weather packets stored in our database for station/object SQ5BUJ-13. If no packets are shown the sender has not sent any weather packets the latest 10 day(s).
| Time | Temp. | Humidity | Pressure | Rain* | Wind** | Luminosity | Snow |
|---|---|---|---|---|---|---|---|
| 1787533204 | 13.33° C | 77% | 1020.4 hPa | - | - | - | - |
| 1787532303 | 13.33° C | 77% | 1020.4 hPa | - | - | - | - |
| 1787531403 | 13.33° C | 77% | 1020.4 hPa | - | - | - | - |
| 1787530503 | 13.33° C | 77% | 1020.4 hPa | - | - | - | - |
| 1787529603 | 12.78° C | 77% | 1020.4 hPa | - | - | - | - |
| 1787528703 | 12.78° C | 77% | 1020.4 hPa | - | - | - | - |
| 1787527836 | 12.78° C | 77% | 1020.4 hPa | - | - | - | - |
| 1787527803 | 12.78° C | 77% | 1020.4 hPa | - | - | - | - |
| 1787526004 | 13.33° C | 73% | 1020.3 hPa | - | - | - | - |
| 1787524203 | 13.33° C | 73% | 1020.3 hPa | - | - | - | - |
| 1787523304 | 13.33° C | 73% | 1020.3 hPa | - | - | - | - |
| 1787522439 | 13.89° C | 72% | 1020.2 hPa | - | - | - | - |
| 1787522403 | 13.89° C | 72% | 1020.2 hPa | - | - | - | - |
| 1787521520 | 13.89° C | 72% | 1020.2 hPa | - | - | - | - |
| 1787520611 | 13.89° C | 72% | 1020.2 hPa | - | - | - | - |
| 1787519704 | 13.33° C | 78% | 1020.3 hPa | - | - | - | - |
| 1787518803 | 13.33° C | 78% | 1020.3 hPa | - | - | - | - |
| 1787517906 | 13.33° C | 78% | 1020.3 hPa | - | - | - | - |
| 1787517009 | 13.33° C | 78% | 1020.3 hPa | - | - | - | - |
| 1787516105 | 13.33° C | 78% | 1020.3 hPa | - | - | - | - |
| 1787515219 | 14.44° C | 73% | 1020.4 hPa | - | - | - | - |
| 1787514304 | 14.44° C | 73% | 1020.4 hPa | - | - | - | - |
| 1787513442 | 14.44° C | 73% | 1020.4 hPa | - | - | - | - |
| 1787510708 | 16.11° C | 62% | 1020.1 hPa | - | - | - | - |
| 1787509804 | 16.11° C | 62% | 1020.1 hPa | - | - | - | - |
* Rain since midnight (hover to see other rain measurements)
** Current wind speed in m/s (hover to see current wind gust speed)